Time;durP1;ratioP1;P1;durP2;ratioP2;P2;SDS_P1;SDS_P2;PMS_P1;PMS_P2;Temp;Humidity;BMP_temperature;BMP_pressure;BME280_temperature;BME280_humidity;BME280_pressure;Samples;Min_cycle;Max_cycle;Signal;HPM_P1;HPM_P2
2021/11/03 00:00:21;;;;;;;44.63;26.40;;;4.20;99.80;;;;;;5014776;28;20080;-78
2021/11/03 00:02:47;;;;;;;52.42;32.05;;;4.20;99.80;;;;;;5014948;28;20025;-78
2021/11/03 00:05:15;;;;;;;49.17;30.23;;;4.30;99.90;;;;;;5014655;28;20029;-78
2021/11/03 00:07:42;;;;;;;45.55;29.17;;;4.30;99.90;;;;;;5014840;28;20104;-77
2021/11/03 00:10:12;;;;;;;47.08;29.63;;;4.30;99.80;;;;;;5014524;28;20022;-77
2021/11/03 00:12:38;;;;;;;45.80;28.15;;;4.40;99.70;;;;;;5014346;28;20034;-78
2021/11/03 00:15:05;;;;;;;44.00;28.42;;;4.40;99.60;;;;;;5014434;28;20025;-78
2021/11/03 00:17:31;;;;;;;42.13;27.17;;;4.40;99.60;;;;;;4996713;28;20038;-77
2021/11/03 00:19:57;;;;;;;45.00;28.35;;;4.40;99.60;;;;;;5014450;28;20022;-76
2021/11/03 00:22:23;;;;;;;45.67;28.98;;;4.40;99.70;;;;;;5013322;28;20030;-75
2021/11/03 00:24:49;;;;;;;47.85;28.95;;;4.40;99.60;;;;;;5014348;28;20018;-80
2021/11/03 00:27:15;;;;;;;50.70;31.88;;;4.40;99.70;;;;;;5014647;28;20024;-80
2021/11/03 00:29:41;;;;;;;48.28;28.80;;;4.40;99.70;;;;;;5014559;28;20141;-80
2021/11/03 00:32:09;;;;;;;48.28;28.90;;;4.40;99.70;;;;;;5013004;28;20029;-79
2021/11/03 00:34:35;;;;;;;51.53;29.92;;;4.40;99.70;;;;;;5014475;28;20029;-80
2021/11/03 00:37:01;;;;;;;48.75;30.33;;;4.40;99.60;;;;;;5014213;28;20038;-81
2021/11/03 00:39:27;;;;;;;48.03;29.63;;;4.40;99.60;;;;;;5014139;28;20018;-80
2021/11/03 00:41:54;;;;;;;50.72;29.63;;;4.40;99.70;;;;;;5014472;28;20479;-81
2021/11/03 00:44:21;;;;;;;50.53;30.02;;;4.40;99.80;;;;;;5013920;28;20022;-80
2021/11/03 00:46:47;;;;;;;51.70;31.02;;;4.40;99.80;;;;;;4999627;28;20441;-80
2021/11/03 00:49:15;;;;;;;47.90;30.70;;;4.40;99.90;;;;;;4994411;28;20082;-80
2021/11/03 00:51:41;;;;;;;46.08;28.58;;;4.50;99.90;;;;;;4994301;28;20078;-80
2021/11/03 00:54:06;;;;;;;44.63;27.70;;;4.50;99.90;;;;;;4996802;28;20034;-80
2021/11/03 00:56:33;;;;;;;52.03;30.00;;;4.50;99.80;;;;;;5013628;28;20054;-79
2021/11/03 00:58:58;;;;;;;49.47;29.23;;;4.50;99.90;;;;;;5013867;28;20061;-80
2021/11/03 01:01:24;;;;;;;43.63;28.65;;;4.50;99.90;;;;;;5013748;28;20049;-80
2021/11/03 01:03:51;;;;;;;47.08;30.27;;;4.60;99.90;;;;;;5013574;28;20030;-80
2021/11/03 01:06:17;;;;;;;42.95;26.25;;;4.60;99.90;;;;;;5013133;28;20017;-79
2021/11/03 01:08:43;;;;;;;53.00;28.85;;;4.60;99.90;;;;;;5013509;28;20026;-77
2021/11/03 01:11:09;;;;;;;47.03;28.83;;;4.60;99.90;;;;;;5012271;28;20033;-78
2021/11/03 01:13:35;;;;;;;48.42;27.70;;;4.60;99.90;;;;;;5013328;28;20061;-79
2021/11/03 01:16:01;;;;;;;47.17;29.10;;;4.50;99.80;;;;;;5013558;28;20046;-78
2021/11/03 01:18:29;;;;;;;48.13;30.88;;;4.50;99.90;;;;;;4995490;28;20685;-78
2021/11/03 01:20:56;;;;;;;48.33;28.80;;;4.50;99.90;;;;;;5013279;28;20028;-75
2021/11/03 01:23:23;;;;;;;45.63;29.52;;;4.60;99.90;;;;;;5013280;28;20029;-77
2021/11/03 01:25:50;;;;;;;48.45;29.63;;;4.50;99.90;;;;;;5004349;28;20027;-78
2021/11/03 01:28:17;;;;;;;42.87;26.33;;;4.60;99.90;;;;;;4993714;28;20030;-80
2021/11/03 01:30:45;;;;;;;46.65;29.15;;;4.60;99.90;;;;;;4994126;28;20113;-78
2021/11/03 01:33:13;;;;;;;53.03;31.08;;;4.60;99.90;;;;;;4993528;28;20062;-78
2021/11/03 01:35:39;;;;;;;48.10;29.20;;;4.60;99.90;;;;;;4993732;28;20029;-78
2021/11/03 01:38:06;;;;;;;49.42;31.63;;;4.60;99.90;;;;;;4993474;28;20395;-76
2021/11/03 01:40:37;;;;;;;45.58;29.40;;;4.60;99.90;;;;;;4993446;28;20022;-77
2021/11/03 01:43:04;;;;;;;48.67;31.02;;;4.70;99.90;;;;;;4993543;28;20026;-79
2021/11/03 01:45:32;;;;;;;50.70;31.42;;;4.70;99.90;;;;;;4993526;28;20018;-79
2021/11/03 01:47:59;;;;;;;;;;;4.70;99.90;;;;;;4994224;28;20040;-80
2021/11/03 01:50:55;;;;;;;50.78;27.25;;;4.60;99.90;;;;;;4995150;28;19928;-79
2021/11/03 01:53:26;;;;;;;51.20;29.90;;;4.60;99.90;;;;;;5000353;28;20022;-79
2021/11/03 01:55:57;;;;;;;49.92;29.10;;;4.50;99.90;;;;;;5010000;28;20287;-78
2021/11/03 01:58:28;;;;;;;49.55;27.00;;;4.60;99.90;;;;;;5012960;28;20041;-80
2021/11/03 02:00:56;;;;;;;42.58;28.63;;;4.60;99.90;;;;;;5013251;28;20029;-79
2021/11/03 02:03:27;;;;;;;45.85;28.33;;;4.70;99.90;;;;;;5012985;28;20053;-79
2021/11/03 02:06:11;;;;;;;52.20;27.05;;;4.60;99.90;;;;;;5012963;28;20018;-78
2021/11/03 02:08:40;;;;;;;47.13;27.98;;;4.70;99.90;;;;;;5013188;28;20507;-77
2021/11/03 02:11:06;;;;;;;46.00;29.48;;;4.70;99.90;;;;;;5013600;28;20030;-78
2021/11/03 02:13:34;;;;;;;45.92;29.10;;;4.60;99.90;;;;;;5012799;28;20026;-79
2021/11/03 02:16:01;;;;;;;49.58;29.67;;;4.70;99.90;;;;;;5012853;28;20022;-78
2021/11/03 02:18:27;;;;;;;48.78;28.15;;;4.70;99.90;;;;;;4997056;28;20029;-77
2021/11/03 02:20:53;;;;;;;43.40;26.92;;;4.70;99.90;;;;;;5015368;28;20033;-79
2021/11/03 02:23:44;;;;;;;49.22;28.05;;;4.80;99.90;;;;;;5016624;28;20029;-77
2021/11/03 02:26:13;;;;;;;45.95;27.95;;;4.70;99.90;;;;;;5016661;28;20475;-79
2021/11/03 02:28:42;;;;;;;50.40;30.20;;;4.70;99.90;;;;;;5016598;28;20108;-78
2021/11/03 02:31:09;;;;;;;47.97;28.70;;;4.80;99.90;;;;;;5016627;28;20018;-78
2021/11/03 02:33:35;;;;;;;50.33;28.05;;;4.80;99.90;;;;;;5016529;28;20021;-77
2021/11/03 02:36:07;;;;;;;44.10;28.90;;;4.80;99.90;;;;;;5016549;28;20028;-78
2021/11/03 02:38:39;;;;;;;46.70;28.60;;;4.80;99.90;;;;;;5016669;28;20514;-78
2021/11/03 02:41:16;;;;;;;50.53;28.70;;;4.80;99.90;;;;;;4998743;28;20033;-77
2021/11/03 02:44:08;;;;;;;51.95;29.95;;;4.80;99.90;;;;;;5016145;28;20100;-78
2021/11/03 02:46:34;;;;;;;52.63;28.73;;;4.80;99.90;;;;;;5002057;28;20514;-79
2021/11/03 02:49:00;;;;;;;54.42;32.53;;;4.90;99.90;;;;;;4996582;28;20018;-78
2021/11/03 02:51:34;;;;;;;54.13;30.67;;;4.80;99.90;;;;;;4996524;28;20052;-76
2021/11/03 02:54:05;;;;;;;53.85;30.58;;;4.80;99.90;;;;;;4980602;28;20031;-78
2021/11/03 02:56:35;;;;;;;51.40;30.80;;;4.80;99.90;;;;;;5015947;28;20052;-76
2021/11/03 02:59:02;;;;;;;52.75;30.77;;;4.80;99.90;;;;;;5016445;28;20072;-76
2021/11/03 03:01:41;;;;;;;47.58;31.00;;;4.80;99.90;;;;;;4996676;28;20432;-78
2021/11/03 03:04:12;;;;;;;52.30;29.27;;;4.80;99.90;;;;;;4996539;28;20049;-75
2021/11/03 03:06:38;;;;;;;47.88;31.27;;;4.90;99.90;;;;;;4994944;28;20026;-78
2021/11/03 03:09:05;;;;;;;54.33;31.77;;;4.90;99.90;;;;;;4996186;28;20030;-79
2021/11/03 03:11:33;;;;;;;54.58;31.10;;;4.90;99.90;;;;;;4996115;28;20105;-78
2021/11/03 03:14:00;;;;;;;52.28;29.13;;;4.90;99.90;;;;;;4978933;28;20034;-79
2021/11/03 03:16:27;;;;;;;50.33;31.10;;;4.90;99.90;;;;;;4996067;28;20042;-78
2021/11/03 03:18:53;;;;;;;55.33;31.03;;;4.90;99.90;;;;;;4978632;28;20038;-78
2021/11/03 03:21:20;;;;;;;53.95;31.42;;;4.90;99.90;;;;;;4996637;28;20026;-80
2021/11/03 03:23:46;;;;;;;52.35;29.80;;;4.90;99.90;;;;;;4995950;28;20035;-79
2021/11/03 03:26:13;;;;;;;52.80;31.40;;;4.90;99.90;;;;;;4995812;28;20157;-79
2021/11/03 03:28:40;;;;;;;50.03;29.42;;;4.90;99.90;;;;;;4994840;28;20027;-77
2021/11/03 03:31:08;;;;;;;51.25;31.05;;;4.90;99.90;;;;;;4995918;28;20150;-78
2021/11/03 03:33:37;;;;;;;53.78;31.52;;;5.00;99.90;;;;;;4995603;28;20149;-77
2021/11/03 03:36:04;;;;;;;54.22;32.30;;;5.00;99.90;;;;;;4978089;28;20090;-77
2021/11/03 03:38:31;;;;;;;54.78;31.17;;;5.00;99.90;;;;;;4995674;28;20102;-77
2021/11/03 03:40:57;;;;;;;54.50;30.23;;;5.00;99.90;;;;;;4995884;28;20310;-77
2021/11/03 03:43:22;;;;;;;55.15;31.95;;;5.00;99.90;;;;;;4995640;28;20484;-78
2021/11/03 03:45:48;;;;;;;60.85;30.70;;;5.00;99.90;;;;;;4989571;28;20030;-77
2021/11/03 03:48:14;;;;;;;50.33;31.13;;;5.00;99.90;;;;;;4976180;28;20034;-77
2021/11/03 03:50:40;;;;;;;53.80;30.77;;;5.00;99.90;;;;;;4975975;28;20034;-79
2021/11/03 03:53:06;;;;;;;41.08;24.40;;;5.00;99.90;;;;;;4975853;28;20023;-78
2021/11/03 03:55:33;;;;;;;54.10;32.25;;;5.00;99.90;;;;;;5003506;28;20045;-78
2021/11/03 03:57:59;;;;;;;52.20;31.23;;;5.00;99.90;;;;;;5015393;28;20040;-77
2021/11/03 04:00:25;;;;;;;52.70;29.27;;;5.10;99.90;;;;;;4997583;28;20408;-77
2021/11/03 04:02:52;;;;;;;57.75;31.23;;;5.00;99.90;;;;;;4995324;28;20061;-78
2021/11/03 04:05:22;;;;;;;56.90;33.03;;;5.00;99.90;;;;;;4994797;28;20468;-77
2021/11/03 04:07:48;;;;;;;49.90;32.58;;;5.00;99.90;;;;;;4995381;28;20034;-77
2021/11/03 04:10:14;;;;;;;50.55;31.08;;;5.00;99.90;;;;;;4995163;28;20023;-78
2021/11/03 04:12:41;;;;;;;61.92;35.13;;;5.00;99.90;;;;;;4995009;28;20018;-78
2021/11/03 04:15:08;;;;;;;56.22;32.75;;;5.10;99.90;;;;;;4995072;28;20490;-78
2021/11/03 04:17:34;;;;;;;52.75;30.15;;;5.10;99.90;;;;;;4993669;28;20049;-79
2021/11/03 04:20:00;;;;;;;60.83;31.70;;;5.10;99.90;;;;;;4994857;28;20027;-78
2021/11/03 04:22:25;;;;;;;53.97;33.10;;;5.10;99.90;;;;;;4994858;28;20034;-79
2021/11/03 04:24:51;;;;;;;61.58;34.85;;;5.10;99.90;;;;;;4995039;28;20392;-77
2021/11/03 04:27:17;;;;;;;57.30;32.33;;;5.20;99.90;;;;;;4994683;28;20030;-78
2021/11/03 04:29:43;;;;;;;57.47;33.75;;;5.20;99.90;;;;;;4994607;28;20073;-77
2021/11/03 04:32:09;;;;;;;65.68;34.42;;;5.20;99.90;;;;;;4993316;28;20487;-78
2021/11/03 04:34:35;;;;;;;50.58;32.75;;;5.20;99.90;;;;;;4994367;28;20083;-78
2021/11/03 04:37:02;;;;;;;59.17;32.97;;;5.30;99.90;;;;;;4994525;28;20097;-80
2021/11/03 04:39:28;;;;;;;60.08;34.28;;;5.30;99.90;;;;;;4994782;28;20038;-79
2021/11/03 04:41:53;;;;;;;58.40;34.40;;;5.20;99.90;;;;;;4993553;28;20026;-79
2021/11/03 04:44:20;;;;;;;57.53;33.22;;;5.30;99.90;;;;;;4993958;28;20511;-78
2021/11/03 04:46:46;;;;;;;58.33;35.50;;;5.30;99.90;;;;;;4982582;28;20018;-76
2021/11/03 04:49:12;;;;;;;61.78;36.85;;;5.30;99.90;;;;;;4975348;28;20027;-77
2021/11/03 04:51:38;;;;;;;65.20;32.75;;;5.30;99.90;;;;;;4975459;28;20113;-76
2021/11/03 04:54:04;;;;;;;60.13;34.00;;;5.30;99.90;;;;;;4979818;28;20125;-77
2021/11/03 04:56:33;;;;;;;58.70;32.53;;;5.30;99.90;;;;;;5015957;28;20415;-78
2021/11/03 04:58:59;;;;;;;54.35;32.60;;;5.30;99.90;;;;;;4994162;28;20116;-78
2021/11/03 05:01:25;;;;;;;54.50;31.95;;;5.40;99.90;;;;;;4994102;28;20102;-78
2021/11/03 05:03:53;;;;;;;55.28;33.30;;;5.30;99.90;;;;;;4994037;28;20034;-76
2021/11/03 05:06:21;;;;;;;58.40;34.13;;;5.40;99.90;;;;;;4993779;28;20105;-76
2021/11/03 05:08:48;;;;;;;63.00;33.40;;;5.40;99.90;;;;;;4994156;28;20066;-78
2021/11/03 05:11:15;;;;;;;68.25;36.55;;;5.40;99.90;;;;;;4993976;28;20026;-77
2021/11/03 05:13:41;;;;;;;53.35;32.15;;;5.40;99.90;;;;;;4994049;28;20029;-77
2021/11/03 05:16:07;;;;;;;63.35;35.17;;;5.50;99.90;;;;;;4993842;28;20030;-79
2021/11/03 05:18:33;;;;;;;57.10;35.05;;;5.50;99.90;;;;;;4993691;28;20046;-78
2021/11/03 05:20:59;;;;;;;66.82;36.10;;;5.60;99.90;;;;;;4993563;28;20022;-79
2021/11/03 05:23:25;;;;;;;58.05;34.22;;;5.60;99.90;;;;;;4993480;28;20445;-79
2021/11/03 05:25:52;;;;;;;54.58;33.00;;;5.60;99.90;;;;;;4994183;28;20134;-78
2021/11/03 05:28:19;;;;;;;55.08;35.13;;;5.60;99.90;;;;;;4993440;28;20117;-78
2021/11/03 05:30:45;;;;;;;59.30;33.33;;;5.60;99.90;;;;;;4993611;28;20049;-79
2021/11/03 05:33:15;;;;;;;53.08;33.88;;;5.70;99.90;;;;;;4992379;28;20030;-81
2021/11/03 05:35:41;;;;;;;60.25;37.92;;;5.70;99.90;;;;;;4993447;28;20061;-78
2021/11/03 05:38:07;;;;;;;64.35;35.22;;;5.70;99.90;;;;;;4976569;28;20093;-78
2021/11/03 05:40:33;;;;;;;55.22;33.65;;;5.70;99.90;;;;;;4994031;28;20023;-79
2021/11/03 05:42:59;;;;;;;59.88;36.35;;;5.70;99.90;;;;;;4993772;28;20371;-79
2021/11/03 05:45:26;;;;;;;63.88;38.20;;;5.70;99.90;;;;;;4991045;28;20038;-80
2021/11/03 05:47:53;;;;;;;52.33;32.65;;;5.70;99.90;;;;;;4974288;28;20045;-81
2021/11/03 05:50:24;;;;;;;53.08;36.33;;;5.80;99.90;;;;;;4974072;28;20027;-77
2021/11/03 05:52:51;;;;;;;57.65;33.65;;;5.80;99.80;;;;;;4976272;28;20030;-77
2021/11/03 05:55:17;;;;;;;59.53;34.97;;;5.80;99.90;;;;;;4999316;28;20049;-79
2021/11/03 05:57:44;;;;;;;57.05;35.47;;;5.80;99.80;;;;;;4997631;28;20542;-77
2021/11/03 06:00:27;;;;;;;56.95;34.85;;;5.90;99.70;;;;;;4997539;28;20054;-77
2021/11/03 06:02:53;;;;;;;55.45;30.58;;;5.90;99.60;;;;;;4997378;28;20027;-77
2021/11/03 06:05:19;;;;;;;65.93;35.80;;;5.90;99.50;;;;;;4996675;28;20019;-77
2021/11/03 06:07:58;;;;;;;55.75;34.42;;;5.90;99.40;;;;;;4997518;28;20026;-80
2021/11/03 06:10:30;;;;;;;60.85;36.88;;;6.00;99.40;;;;;;4997217;28;20364;-79
2021/11/03 06:12:56;;;;;;;62.70;35.95;;;6.00;99.40;;;;;;4997382;28;20018;-79
2021/11/03 06:15:23;;;;;;;64.68;35.53;;;5.90;99.30;;;;;;4997144;28;20069;-78
2021/11/03 06:17:52;;;;;;;64.28;37.05;;;6.00;99.30;;;;;;4997134;28;20125;-77
2021/11/03 06:20:18;;;;;;;59.42;36.35;;;6.00;99.30;;;;;;4979409;28;20030;-78
2021/11/03 06:22:43;;;;;;;56.58;34.97;;;6.00;99.20;;;;;;4995748;28;20061;-76
2021/11/03 06:25:12;;;;;;;57.45;35.40;;;6.00;99.20;;;;;;4977813;28;20027;-77
2021/11/03 06:27:39;;;;;;;60.30;37.22;;;6.10;99.20;;;;;;4977485;28;20023;-79
2021/11/03 06:30:07;;;;;;;64.88;38.35;;;6.10;99.10;;;;;;4977579;28;20487;-79
2021/11/03 06:32:35;;;;;;;67.85;37.92;;;6.10;99.00;;;;;;4977119;28;20061;-78
2021/11/03 06:35:05;;;;;;;58.88;34.08;;;6.10;99.10;;;;;;4990591;28;20479;-79
2021/11/03 06:37:31;;;;;;;64.22;36.83;;;6.10;99.00;;;;;;4996638;28;20431;-82
2021/11/03 06:39:57;;;;;;;57.10;36.22;;;6.20;99.00;;;;;;4997008;28;20402;-76
2021/11/03 06:42:23;;;;;;;65.28;38.08;;;6.20;98.90;;;;;;4997087;28;20020;-80
2021/11/03 06:44:49;;;;;;;64.93;38.97;;;6.20;98.80;;;;;;4996524;28;20030;-79
2021/11/03 06:47:15;;;;;;;61.45;39.30;;;6.20;98.60;;;;;;4995565;28;20033;-80
2021/11/03 06:49:41;;;;;;;60.80;38.08;;;6.20;98.60;;;;;;4996498;28;20023;-78
2021/11/03 06:52:07;;;;;;;57.90;38.65;;;6.20;98.60;;;;;;4988830;28;20022;-79
2021/11/03 06:54:33;;;;;;;61.80;37.95;;;6.10;98.60;;;;;;4983790;28;20394;-80
2021/11/03 06:57:02;;;;;;;64.10;37.00;;;6.20;98.70;;;;;;5015769;28;20116;-78
2021/11/03 06:59:28;;;;;;;65.75;39.83;;;6.20;98.60;;;;;;5016002;28;20044;-79
2021/11/03 07:01:54;;;;;;;62.33;37.63;;;6.20;98.50;;;;;;5014673;28;20030;-80
2021/11/03 07:04:20;;;;;;;59.88;37.58;;;6.20;98.50;;;;;;5011033;28;20030;-80
2021/11/03 07:06:46;;;;;;;66.78;40.20;;;6.20;98.60;;;;;;4996292;28;20026;-79
2021/11/03 07:09:11;;;;;;;59.30;37.40;;;6.20;98.70;;;;;;4996184;28;20514;-80
2021/11/03 07:11:38;;;;;;;61.35;38.58;;;6.20;98.60;;;;;;4997242;28;20087;-79
2021/11/03 07:14:04;;;;;;;61.08;39.00;;;6.30;98.60;;;;;;4996105;28;20458;-80
2021/11/03 07:16:30;;;;;;;64.65;39.45;;;6.30;98.50;;;;;;4995679;28;20019;-80
2021/11/03 07:18:56;;;;;;;62.38;38.55;;;6.30;98.50;;;;;;4996074;28;20040;-78
2021/11/03 07:21:21;;;;;;;62.67;37.47;;;6.40;98.30;;;;;;4996079;28;20026;-77
2021/11/03 07:23:47;;;;;;;57.92;36.10;;;6.40;98.20;;;;;;4996591;28;20033;-81
2021/11/03 07:26:14;;;;;;;59.38;37.63;;;6.50;98.20;;;;;;4995674;28;20105;-81
2021/11/03 07:28:40;;;;;;;59.10;36.83;;;6.50;98.00;;;;;;4995586;28;20031;-81
2021/11/03 07:31:07;;;;;;;63.80;38.67;;;6.50;98.00;;;;;;4994612;28;20537;-82
2021/11/03 07:33:33;;;;;;;60.13;38.63;;;6.50;97.90;;;;;;4995084;28;20595;-82
2021/11/03 07:35:59;;;;;;;57.20;34.28;;;6.50;97.90;;;;;;5002215;28;20264;-81
2021/11/03 07:38:25;;;;;;;60.13;37.63;;;6.50;97.70;;;;;;5016774;28;20038;-80
2021/11/03 07:40:55;;;;;;;58.35;36.50;;;6.50;97.90;;;;;;5017718;28;20033;-84
2021/11/03 07:43:23;;;;;;;58.10;35.90;;;6.50;97.80;;;;;;5009090;28;20108;-81
2021/11/03 07:45:51;;;;;;;58.80;36.15;;;6.50;97.80;;;;;;5015419;28;20022;-81
2021/11/03 07:48:18;;;;;;;56.72;35.80;;;6.50;97.70;;;;;;5017323;28;20105;-80
2021/11/03 07:50:49;;;;;;;67.25;38.63;;;6.60;97.70;;;;;;5015462;28;20034;-81
2021/11/03 07:53:17;;;;;;;65.80;35.25;;;6.60;97.70;;;;;;5014297;28;20367;-81
2021/11/03 07:55:45;;;;;;;;;;;6.70;97.60;;;;;;5014142;28;20141;-79
2021/11/03 07:58:17;;;;;;;59.80;36.63;;;6.70;97.60;;;;;;5002567;28;19918;-81
2021/11/03 08:00:43;;;;;;;61.33;37.45;;;6.70;97.40;;;;;;4995192;28;20514;-80
2021/11/03 08:03:09;;;;;;;55.58;36.42;;;6.70;97.40;;;;;;4994397;28;20026;-80
2021/11/03 08:05:35;;;;;;;58.88;38.97;;;6.70;97.20;;;;;;4994860;28;20027;-79
2021/11/03 08:08:07;;;;;;;64.78;38.90;;;6.70;97.20;;;;;;4995966;28;20026;-81
2021/11/03 08:10:34;;;;;;;51.90;33.97;;;6.70;97.20;;;;;;4995036;28;20029;-79
2021/11/03 08:13:00;;;;;;;58.72;36.90;;;6.70;97.20;;;;;;4995137;28;20022;-80
2021/11/03 08:15:27;;;;;;;61.70;38.10;;;6.80;97.10;;;;;;4994889;28;20027;-81
2021/11/03 08:17:55;;;;;;;61.60;37.67;;;6.80;97.10;;;;;;4995343;28;20034;-80
2021/11/03 08:20:24;;;;;;;51.75;35.53;;;6.80;97.10;;;;;;4995209;28;20018;-80
2021/11/03 08:22:51;;;;;;;61.60;37.95;;;6.90;97.00;;;;;;4994346;28;20165;-81
2021/11/03 08:25:17;;;;;;;57.72;36.95;;;6.90;96.90;;;;;;4993544;28;20030;-81
2021/11/03 08:27:43;;;;;;;60.33;37.30;;;6.90;96.80;;;;;;4994681;28;20049;-81
2021/11/03 08:30:13;;;;;;;51.40;35.55;;;6.90;96.90;;;;;;4996379;28;20025;-79
2021/11/03 08:32:45;;;;;;;59.35;38.17;;;7.00;96.90;;;;;;4996067;28;20109;-79
2021/11/03 08:35:13;;;;;;;57.08;36.20;;;6.90;96.60;;;;;;4994443;28;20018;-81
2021/11/03 08:37:40;;;;;;;54.38;38.22;;;6.90;96.60;;;;;;4994439;28;20037;-79
2021/11/03 08:40:10;;;;;;;60.95;37.15;;;7.00;96.70;;;;;;4994825;28;20493;-80
2021/11/03 08:42:36;;;;;;;56.92;36.08;;;7.00;96.60;;;;;;4978815;28;20034;-83
2021/11/03 08:45:03;;;;;;;62.33;35.63;;;7.00;96.60;;;;;;4994997;28;20386;-81
2021/11/03 08:47:29;;;;;;;58.67;37.47;;;7.00;96.50;;;;;;4993736;28;20080;-79
2021/11/03 08:49:55;;;;;;;61.63;34.42;;;7.00;96.60;;;;;;4994120;28;20459;-80
2021/11/03 08:52:21;;;;;;;58.05;38.05;;;7.10;96.50;;;;;;4993968;28;20031;-80
2021/11/03 08:54:49;;;;;;;50.42;33.30;;;7.10;96.40;;;;;;4996054;28;20034;-80
2021/11/03 08:57:19;;;;;;;54.67;36.92;;;7.10;96.30;;;;;;5013778;28;20061;-80
2021/11/03 08:59:46;;;;;;;57.35;35.65;;;7.00;96.30;;;;;;5014218;28;20018;-80
2021/11/03 09:02:12;;;;;;;59.23;37.93;;;7.10;96.30;;;;;;5012100;28;20132;-81
2021/11/03 09:04:38;;;;;;;62.00;37.05;;;7.10;96.30;;;;;;5013826;28;20347;-81
2021/11/03 09:07:11;;;;;;;55.35;37.38;;;7.10;96.30;;;;;;5013259;28;20029;-83
2021/11/03 09:09:42;;;;;;;64.43;38.97;;;7.20;96.30;;;;;;5013134;28;20215;-81
2021/11/03 09:12:08;;;;;;;58.58;38.33;;;7.30;96.20;;;;;;4995432;28;20449;-80
2021/11/03 09:14:34;;;;;;;57.45;36.53;;;7.30;96.10;;;;;;5013200;28;20493;-81
2021/11/03 09:17:00;;;;;;;56.65;35.97;;;7.30;95.90;;;;;;5012947;28;20033;-78
2021/11/03 09:19:26;;;;;;;60.67;37.97;;;7.40;96.00;;;;;;5014132;28;20601;-79
2021/11/03 09:21:52;;;;;;;59.40;39.38;;;7.40;95.70;;;;;;5013200;28;20104;-81
2021/11/03 09:24:19;;;;;;;54.20;36.65;;;7.40;95.60;;;;;;5013005;28;20394;-82
2021/11/03 09:26:45;;;;;;;55.10;37.22;;;7.40;95.40;;;;;;5012534;28;20021;-80
2021/11/03 09:29:12;;;;;;;56.05;38.60;;;7.30;95.50;;;;;;5012535;28;20048;-77
2021/11/03 09:31:39;;;;;;;53.92;34.40;;;7.30;95.50;;;;;;5013170;28;20113;-81
2021/11/03 09:34:05;;;;;;;54.38;39.28;;;7.30;95.50;;;;;;5012857;28;20022;-79
2021/11/03 09:36:32;;;;;;;54.38;37.25;;;7.30;95.50;;;;;;5012817;28;20025;-82
2021/11/03 09:38:58;;;;;;;55.85;36.60;;;7.30;95.60;;;;;;5012811;28;20048;-79
2021/11/03 09:41:44;;;;;;;55.25;36.17;;;7.30;95.60;;;;;;5013119;28;20526;-78
2021/11/03 09:44:14;;;;;;;58.58;40.13;;;7.30;95.60;;;;;;5012613;28;20022;-77
2021/11/03 09:46:44;;;;;;;66.07;42.38;;;7.30;95.60;;;;;;5013059;28;20455;-80
2021/11/03 09:49:22;;;;;;;53.72;34.92;;;7.40;95.60;;;;;;4994492;28;20026;-81
2021/11/03 09:51:56;;;;;;;59.75;39.00;;;7.40;95.60;;;;;;5012448;28;20049;-80
2021/11/03 09:54:26;;;;;;;64.70;38.38;;;7.40;95.50;;;;;;5012399;28;20026;-78
2021/11/03 09:57:07;;;;;;;65.03;40.10;;;7.40;95.50;;;;;;5013571;28;20042;-80
2021/11/03 09:59:41;;;;;;;56.80;38.55;;;7.40;95.50;;;;;;5005826;28;20053;-79
2021/11/03 10:02:35;;;;;;;62.15;40.35;;;7.50;95.50;;;;;;4991351;28;20575;-80
2021/11/03 10:05:31;;;;;;;56.90;36.53;;;7.50;95.50;;;;;;4992100;28;20050;-80
2021/11/03 10:08:03;;;;;;;59.78;39.35;;;7.50;95.40;;;;;;4991520;28;20227;-80
2021/11/03 10:10:39;;;;;;;67.10;38.00;;;7.50;95.40;;;;;;4992146;28;20022;-80
2021/11/03 10:13:39;;;;;;;65.28;37.00;;;7.60;95.40;;;;;;4995244;28;20427;-82
2021/11/03 10:16:14;;;;;;;59.72;39.10;;;7.60;95.40;;;;;;4992580;28;20042;-82
2021/11/03 10:18:52;;;;;;;59.40;39.80;;;7.60;95.40;;;;;;4993405;28;20035;-80
2021/11/03 10:21:30;;;;;;;61.60;38.17;;;7.60;95.40;;;;;;4994822;28;20079;-82
2021/11/03 10:24:05;;;;;;;58.85;36.90;;;7.60;95.60;;;;;;4993851;28;20026;-82
2021/11/03 10:26:47;;;;;;;61.72;38.83;;;7.50;95.80;;;;;;4997344;28;20022;-82
2021/11/03 10:29:13;;;;;;;58.00;37.13;;;7.40;96.40;;;;;;5011022;28;20121;-84
2021/11/03 10:32:08;;;;;;;58.78;41.65;;;7.30;96.40;;;;;;5012089;28;20064;-81
2021/11/03 10:34:34;;;;;;;52.70;39.20;;;7.30;96.70;;;;;;5003103;28;20038;-82
2021/11/03 10:37:21;;;;;;;57.92;35.75;;;7.30;96.90;;;;;;5011769;28;20060;-82
2021/11/03 10:39:58;;;;;;;52.53;38.53;;;7.30;97.20;;;;;;5014352;28;20428;-81
2021/11/03 10:42:33;;;;;;;59.30;39.72;;;7.20;97.30;;;;;;5015461;28;20041;-81
2021/11/03 10:45:25;;;;;;;60.25;38.45;;;7.20;97.50;;;;;;5016740;28;20022;-80
2021/11/03 10:48:23;;;;;;;54.47;37.08;;;7.20;97.70;;;;;;5015596;28;20021;-80
2021/11/03 10:50:55;;;;;;;59.28;38.70;;;7.20;97.90;;;;;;4988487;28;20023;-80
2021/11/03 10:53:36;;;;;;;57.92;37.88;;;7.10;98.20;;;;;;4996413;28;20472;-80
2021/11/03 10:56:10;;;;;;;55.28;36.47;;;7.10;98.40;;;;;;4996111;28;20049;-81
2021/11/03 10:59:12;;;;;;;57.03;39.65;;;7.00;98.70;;;;;;4978507;28;20045;-81
2021/11/03 11:01:45;;;;;;;53.08;37.05;;;7.00;99.00;;;;;;4994229;28;20411;-81
2021/11/03 11:04:11;;;;;;;55.28;39.20;;;7.00;99.10;;;;;;4995975;28;20035;-81
2021/11/03 11:06:43;;;;;;;53.33;37.35;;;7.00;99.20;;;;;;4995869;28;20030;-80
2021/11/03 11:09:09;;;;;;;50.15;35.58;;;7.00;99.30;;;;;;4995720;28;20109;-80
2021/11/03 11:11:37;;;;;;;53.38;37.22;;;7.00;99.40;;;;;;4995687;28;20138;-79
2021/11/03 11:14:17;;;;;;;55.42;36.67;;;7.00;99.40;;;;;;4997110;28;20030;-80
2021/11/03 11:17:01;;;;;;;50.80;34.55;;;7.00;99.30;;;;;;4996736;28;20419;-80
2021/11/03 11:20:03;;;;;;;54.72;36.25;;;7.00;99.30;;;;;;4996097;28;20049;-80
2021/11/03 11:22:55;;;;;;;53.92;35.83;;;7.10;99.30;;;;;;4980049;28;20037;-80
2021/11/03 11:25:32;;;;;;;48.05;33.58;;;7.10;99.30;;;;;;4995899;28;20547;-80
2021/11/03 11:28:37;;;;;;;51.28;35.85;;;7.10;99.20;;;;;;4979125;28;20475;-81
2021/11/03 11:31:19;;;;;;;52.17;33.40;;;7.10;99.10;;;;;;4995510;28;20487;-80
2021/11/03 11:34:07;;;;;;;50.63;35.17;;;7.20;99.10;;;;;;4995450;28;20030;-79
2021/11/03 11:36:43;;;;;;;55.22;35.70;;;7.20;99.00;;;;;;5007011;28;20080;-80
2021/11/03 11:39:33;;;;;;;43.45;29.40;;;7.20;99.10;;;;;;5015050;28;20045;-80
2021/11/03 11:42:06;;;;;;;52.05;34.38;;;7.20;99.10;;;;;;5014614;28;20029;-80
2021/11/03 11:44:35;;;;;;;48.50;32.40;;;7.20;99.20;;;;;;5014749;28;20140;-81
2021/11/03 11:47:06;;;;;;;51.78;35.70;;;7.20;99.30;;;;;;5014943;28;20478;-80
2021/11/03 11:49:35;;;;;;;49.88;35.50;;;7.10;99.50;;;;;;5014586;28;20014;-82
2021/11/03 11:52:06;;;;;;;51.35;35.53;;;7.20;99.60;;;;;;5014893;28;20101;-81
2021/11/03 11:54:39;;;;;;;45.38;32.80;;;7.20;99.70;;;;;;5015343;28;20022;-86
2021/11/03 11:57:11;;;;;;;45.92;32.13;;;7.20;99.70;;;;;;4997979;28;20080;-86
2021/11/03 12:00:03;;;;;;;56.72;36.28;;;7.30;99.80;;;;;;4995274;28;20105;-89
2021/11/03 12:02:32;;;;;;;43.47;31.27;;;7.40;99.70;;;;;;4980148;28;20038;-86
2021/11/03 12:05:20;;;;;;;45.90;33.88;;;7.40;99.50;;;;;;4997311;28;20033;-85
2021/11/03 12:08:10;;;;;;;42.50;32.85;;;7.40;99.50;;;;;;4998988;28;20030;-81
2021/11/03 12:11:02;;;;;;;46.20;30.50;;;7.40;99.40;;;;;;4986471;28;20023;-91
2021/11/03 12:13:30;;;;;;;43.22;31.58;;;7.40;99.30;;;;;;4999540;28;20026;-89
2021/11/03 12:15:56;;;;;;;46.05;32.55;;;7.50;99.30;;;;;;4982264;28;20510;-90
2021/11/03 12:18:54;;;;;;;40.70;30.52;;;7.50;99.30;;;;;;4982029;28;20038;-89
2021/11/03 12:21:25;;;;;;;43.42;31.77;;;7.50;99.20;;;;;;5002611;28;20074;-88
2021/11/03 12:23:54;;;;;;;50.17;33.72;;;7.50;99.20;;;;;;5002059;28;20033;-88
2021/11/03 12:26:28;;;;;;;42.95;30.02;;;7.60;99.10;;;;;;5001158;28;20099;-87
2021/11/03 12:28:56;;;;;;;45.83;32.42;;;7.50;99.10;;;;;;5001763;28;20022;-87
2021/11/03 12:31:31;;;;;;;;;;;7.50;99.10;;;;;;4999345;28;20105;-89
2021/11/03 12:34:03;;;;;;;50.05;32.50;;;7.50;99.20;;;;;;5005019;28;20008;-87
2021/11/03 12:36:29;;;;;;;46.38;35.67;;;7.50;99.30;;;;;;5008637;28;20484;-89
2021/11/03 12:38:59;;;;;;;51.60;33.50;;;7.50;99.20;;;;;;5019524;28;20033;-89
2021/11/03 12:41:50;;;;;;;47.20;32.78;;;7.50;99.30;;;;;;5022906;28;20026;-91
2021/11/03 12:44:26;;;;;;;45.22;31.67;;;7.50;99.40;;;;;;5019022;28;20204;-86
2021/11/03 12:46:55;;;;;;;45.65;31.98;;;7.40;99.50;;;;;;5014952;28;20077;-88
2021/11/03 12:49:24;;;;;;;44.40;32.28;;;7.40;99.60;;;;;;5003179;28;20030;-89
2021/11/03 12:51:53;;;;;;;46.17;32.15;;;7.30;99.70;;;;;;5011995;28;20105;-84